Tiempo atmosférico en la estación meteorológica de Torrelavega, Sierrapando, Cantabria (100 m.)



Fecha
DESCASC
Temp. máxima en grados centígrados (hora)
DESCASC
Temp. mínima en grados centígrados (hora)
DESCASC
Temp. media en grados centígrados
DESCASC
Racha de viento máxima en m/sg (hora)
DESCASC
Velocidad máxima media en intervalos de 10 minutos(hora)
DESCASC
Precipitaciones diarias en mm
DESCASC
Precipitaciones de 00:00 a 06:00 en mm
DESCASC
Precipitaciones de 06:00 a 12:00 en mm
DESCASC
Precipitaciones de 12:00 a 18:00 en mm
DESCASC
Precipitaciones de 18:00 a 24:00 en mm
DESCASC
06-07-2020 18.9 (00:00) 16.3 (23:59) 17.6 7.78 (21:00) 5.56 (11:50) 0.4 0.4 0 0 0
05-07-2020 23.3 (11:40) 14.8 (06:10) 19 7.78 (17:10) 5 (14:10) 0 0 0 0 0
04-07-2020 23.1 (14:10) 12.5 (06:10) 17.8 7.22 (16:00) 5.28 (16:00) 0 0 0 0 0
03-07-2020 20.5 (15:40) 13.6 (02:30) 17.1 8.06 (17:20) 5 (17:20) 0 0 0 0 0
02-07-2020 17.3 (12:20) 14.1 (00:00) 15.7 5.83 (13:00) 3.89 (22:00) 3.2 0.6 0 0 2.6
01-07-2020 21.5 (12:10) 15.7 (00:00) 18.6 7.22 (18:10) 4.72 (18:20) 0.8 0 0 0.4 0.4
30-06-2020 23.9 (17:00) 14 (00:00) 18.9 6.39 (15:00) 4.44 (14:30) 0 0 0 0 0
29-06-2020 18.8 (16:20) 15.7 (00:00) 17.2 5.83 (00:40) 3.61 (12:30) 0.4 0.4 0 0 0
28-06-2020 25.8 (14:20) 16.5 (00:00) 21.1 7.22 (14:00) 4.72 (15:20) 0.6 0 0 0 0.6
27-06-2020 26.7 (13:40) 14.1 (00:00) 20.4 8.06 (17:10) 5.83 (17:10) 0 0 0 0 0
26-06-2020 20.3 (20:10) 15.5 (00:00) 17.9 5.28 (23:00) 3.33 (22:50) 0 0 0 0 0
25-06-2020 19.4 (02:20) 16.3 (00:00) 17.8 8.89 (02:50) 5.28 (02:10) 6 0 0.2 1.2 4.6
24-06-2020 23.3 (16:10) 17.8 (00:00) 20.5 11.11 (19:00) 6.67 (19:00) 0 0 0 0 0
23-06-2020 28.4 (13:20) 14.9 (00:00) 21.6 5.83 (15:40) 4.44 (15:40) 0 0 0 0 0
22-06-2020 25.2 (13:50) 16 (00:00) 20.6 8.06 (16:40) 5.83 (16:50) 0 0 0 0 0
21-06-2020 24.2 (16:40) 14 (00:00) 19.1 7.5 (15:20) 5.28 (15:00) 0 0 0 0 0
20-06-2020 23.3 (13:20) 12.6 (00:00) 17.9 8.61 (15:10) 5.83 (14:00) 0 0 0 0 0
19-06-2020 20.3 (12:40) 13.7 (00:00) 17 6.67 (12:20) 3.89 (13:10) 0 0 0 0 0
18-06-2020 19.4 (16:50) 12.7 (00:00) 16 6.94 (15:30) 5 (14:50) 1.2 1.2 0 0 0
17-06-2020 18.5 (15:40) 12.9 (00:00) 15.7 10 (13:00) 7.5 (14:10) 0 0 0 0 0
16-06-2020 17.7 (17:30) 13.6 (00:00) 15.7 10.28 (19:20) 6.94 (19:20) 2.4 0.2 0.6 1.6 0
15-06-2020 21.4 (12:40) 13.9 (00:00) 17.6 7.5 (15:40) 5 (13:50) 3.2 0.2 0.6 2.2 0.2
14-06-2020 21.4 (12:20) 12.6 (00:00) 17 7.22 (14:10) 4.72 (14:50) 0.2 0 0 0 0.2
13-06-2020 20.4 (12:40) 11.8 (00:00) 16.1 6.94 (15:00) 4.72 (14:30) 0.4 0 0 0.4 0
12-06-2020 18.2 (14:50) 10.8 (00:00) 14.5 17.5 (15:40) 10.83 (15:40) 1.4 0 0.2 1.2 0
11-06-2020 18.5 (11:00) 10.2 (00:00) 14.3 13.89 (13:40) 8.89 (12:10) 6.4 0 1.2 1.6 3.6
10-06-2020 18.1 (11:00) 10.3 (00:00) 14.2 5.28 (15:40) 3.89 (05:30) 0 0 0 0 0

Gráficas

Temp. máximas Temp. mínimas Temp. medias Precipitaciones Rachas de viento máximas Velocidades máximas media en intervalos de 10 minutos

Datos horarios

Fecha y hora oficial Temperatura (ºC) Velocidad del viento (km/h) Dirección del viento Racha (km/h) Dirección de racha Precipitación (mm) Presión (hPa) Tendencia (hPa) Humedad (%)
2020-07-09 23:00:00 18.9 6 Noroeste 13 Noroeste 0 -- -- 90
2020-07-09 22:00:00 18.9 9 Noroeste 16 Noroeste 0 -- -- 89
2020-07-09 21:00:00 19.9 4 Oeste 16 Noroeste 0 -- -- 84
2020-07-09 20:00:00 20.7 10 Noroeste 19 Norte 0 -- -- 79
2020-07-09 19:00:00 23.3 12 Norte 23 Noroeste 0 -- -- 71
2020-07-09 18:00:00 22.6 15 Norte 25 Norte 0 -- -- 72
2020-07-09 17:00:00 23.2 12 Noroeste 23 Norte 0 -- -- 72
2020-07-09 16:00:00 22.4 15 Norte 24 Norte 0 -- -- 79
2020-07-09 15:00:00 22.2 15 Norte 24 Norte 0 -- -- 79
2020-07-09 14:00:00 23.1 13 Norte 22 Norte 0 -- -- 77
2020-07-09 13:00:00 22.2 16 Norte 24 Nordeste 0 -- -- 80
2020-07-09 12:00:00 22.2 13 Norte 20 Noroeste 0 -- -- 80
2020-07-09 11:00:00 22.4 10 Norte 19 Norte 0 -- -- 81
2020-07-09 10:00:00 21.6 6 Noroeste 11 Noroeste 0 -- -- 79
2020-07-09 09:00:00 20.5 6 Sudoeste 9 Sudoeste 0 -- -- 88
2020-07-09 08:00:00 17.8 7 Sudoeste 10 Sudoeste 0 -- -- 95
2020-07-09 07:00:00 17.1 8 Sudoeste 10 Sudoeste 0 -- -- 95
2020-07-09 06:00:00 17.2 9 Sudoeste 12 Sudoeste 0 -- -- 95
2020-07-09 05:00:00 17.4 2 Noroeste 15 Sudoeste 0 -- -- 94
2020-07-09 04:00:00 17.7 8 Sur 13 Sudoeste 0 -- -- 93
2020-07-09 03:00:00 18 6 Sur 8 Sur 0 -- -- 93
2020-07-09 02:00:00 18.4 8 Sudoeste 13 Sudoeste 0 -- -- 91
2020-07-09 01:00:00 18.8 4 Oeste 6 Noroeste 0 -- -- 90
2020-07-09 00:00:00 19 3 Oeste 12 Norte 0 -- -- 88
2020-07-08 23:00:00 19.7 3 Oeste 10 Norte 0 -- -- 83
2020-07-08 22:00:00 20 9 Norte 12 Norte 0 -- -- 81
2020-07-08 21:00:00 21.4 6 Nordeste 22 Nordeste 0 -- -- 75
2020-07-08 20:00:00 21.9 16 Nordeste 22 Nordeste 0 -- -- 66
2020-07-08 19:00:00 23.5 15 Nordeste 24 Nordeste 0 -- -- 63
2020-07-08 18:00:00 23.9 21 Nordeste 30 Nordeste 0 -- -- 62
2020-07-08 17:00:00 24.3 16 Nordeste 29 Este 0 -- -- 66
2020-07-08 16:00:00 24.2 18 Nordeste 31 Nordeste 0 -- -- 67
2020-07-08 15:00:00 23.8 27 Nordeste 36 Nordeste 0 -- -- 70
2020-07-08 14:00:00 24.5 14 Nordeste 26 Nordeste 0 -- -- 70
2020-07-08 13:00:00 24.7 8 Este 19 Este 0 -- -- 67
2020-07-08 12:00:00 22.7 4 Este 18 Nordeste 0 -- -- 73
2020-07-08 11:00:00 22 10 Este 18 Este 0 -- -- 75
2020-07-08 10:00:00 20.8 3 Sudeste 10 Sudeste 0 -- -- 76
2020-07-08 09:00:00 18 7 Sudeste 13 Sudeste 0 -- -- 86
2020-07-08 08:00:00 15.8 7 Sur 10 Sudeste 0 -- -- 93
2020-07-08 07:00:00 14.6 5 Sur 6 Sur 0 -- -- 94
2020-07-08 06:00:00 14.9 5 Sur 9 Sudoeste 0 -- -- 93
2020-07-08 05:00:00 15.4 7 Sudoeste 10 Sudoeste 0 -- -- 91
2020-07-08 04:00:00 16 4 Sudoeste 8 Sur 0 -- -- 88
2020-07-08 03:00:00 16.6 5 Este 12 Este 0 -- -- 84
2020-07-08 02:00:00 17.6 5 Nordeste 10 Nordeste 0 -- -- 81
2020-07-08 01:00:00 18.4 4 Sudeste 10 Nordeste 0 -- -- 78
2020-07-08 00:00:00 18.4 8 Este 21 Este 0 -- -- 78
2020-07-07 23:00:00 18.6 13 Este 26 Este 0 -- -- 76
2020-07-07 22:00:00 18.9 18 Este 26 Nordeste 0 -- -- 76
2020-07-07 21:00:00 19.9 13 Nordeste 26 Este 0 -- -- 76
2020-07-07 20:00:00 21 15 Nordeste 26 Nordeste 0 -- -- 74
2020-07-07 19:00:00 21.7 18 Nordeste 30 Nordeste 0 -- -- 72
2020-07-07 18:00:00 22.2 18 Nordeste 30 Nordeste 0 -- -- 71
2020-07-07 17:00:00 21.9 24 Nordeste 33 Este 0 -- -- 71
2020-07-07 16:00:00 22 22 Nordeste 36 Nordeste 0 -- -- 69
2020-07-07 15:00:00 22.4 19 Nordeste 28 Nordeste 0 -- -- 67
2020-07-07 14:00:00 22.2 16 Este 27 Nordeste 0 -- -- 66
2020-07-07 13:00:00 21.7 13 Nordeste 23 Este 0 -- -- 65
2020-07-07 12:00:00 20.7 14 Este 22 Sudeste 0 -- -- 66
2020-07-07 11:00:00 19.5 17 Este 26 Este 0 -- -- 67
2020-07-07 10:00:00 18.6 13 Este 19 Este 0 -- -- 72
2020-07-07 09:00:00 15.9 13 Sudeste 19 Sudeste 0 -- -- 87
2020-07-07 08:00:00 13.8 13 Sudeste 18 Sudeste 0 -- -- 95
2020-07-07 07:00:00 12.5 10 Sudeste 14 Sudeste 0 -- -- 96
2020-07-07 06:00:00 13 11 Sudeste 17 Sudeste 0 -- -- 95
2020-07-07 05:00:00 13.7 6 Sudeste 11 Sudeste 0 -- -- 92
2020-07-07 04:00:00 14.6 0 Calma 5 Sudeste 0 -- -- 87
2020-07-07 03:00:00 14.6 4 Nordeste 14 Este 0 -- -- 86
2020-07-07 02:00:00 15.3 9 Sudeste 13 Sudeste 0 -- -- 86
2020-07-07 01:00:00 15.6 8 Este 15 Nordeste 0 -- -- 83
2020-07-07 00:00:00 16.3 8 Este 12 Este 0 -- -- 82
2020-07-06 23:00:00 16.7 6 Este 12 Nordeste 0 -- -- 82
2020-07-06 22:00:00 16.9 9 Este 23 Este 0 -- -- 81
2020-07-06 21:00:00 17.1 19 Nordeste 28 Nordeste 0 -- -- 83
2020-07-06 20:00:00 17.9 12 Nordeste 18 Nordeste 0 -- -- 82
2020-07-06 19:00:00 18.2 10 Este 20 Este 0 -- -- 82
2020-07-06 18:00:00 18.2 14 Nordeste 24 Nordeste 0 -- -- 81
2020-07-06 17:00:00 18.2 14 Nordeste 24 Este 0 -- -- 83
2020-07-06 16:00:00 18 13 Nordeste 24 Nordeste 0 -- -- 87
2020-07-06 15:00:00 17.5 15 Nordeste 27 Nordeste 0 -- -- 92
2020-07-06 14:00:00 17.3 17 Nordeste 25 Nordeste 0 -- -- 92
2020-07-06 13:00:00 17.5 13 Nordeste 27 Nordeste 0 -- -- 94
2020-07-06 12:00:00 17.5 18 Nordeste 28 Nordeste 0 -- -- 99
2020-07-06 11:00:00 17.2 18 Nordeste 25 Nordeste 0 -- -- 99
2020-07-06 10:00:00 17.2 15 Nordeste 22 Nordeste 0 -- -- 99
2020-07-06 09:00:00 17.3 12 Nordeste 16 Nordeste 0 -- -- 99
2020-07-06 08:00:00 17.2 4 Nordeste 14 Norte 0 -- -- 99
2020-07-06 07:00:00 17.1 9 Nordeste 18 Nordeste 0 -- -- 98
2020-07-06 06:00:00 17.4 12 Nordeste 20 Norte 0.4 -- -- 97
2020-07-06 05:00:00 18.1 8 Noroeste 15 Noroeste 0 -- -- 96
2020-07-06 04:00:00 18.1 3 Norte 8 Nordeste 0 -- -- 96
2020-07-06 03:00:00 18.3 4 Nordeste 7 Sudoeste 0 -- -- 94
2020-07-06 02:00:00 18.9 6 Oeste 11 Oeste 0 -- -- 88
2020-07-06 01:00:00 18.9 5 Oeste 10 Noroeste 0 -- -- 87
2020-07-06 00:00:00 18.9 5 Noroeste 15 Noroeste 0 -- -- 88
2020-07-05 23:00:00 19 7 Noroeste 11 Noroeste 0 -- -- 89
2020-07-05 22:00:00 18.8 9 Norte 14 Norte 0 -- -- 88
2020-07-05 21:00:00 20 8 Nordeste 15 Nordeste 0 -- -- 83
2020-07-05 20:00:00 20.9 13 Norte 18 Norte 0 -- -- 80
2020-07-05 19:00:00 22.1 10 Nordeste 20 Norte 0 -- -- 74
2020-07-05 18:00:00 22.2 11 Nordeste 28 Nordeste 0 -- -- 72
2020-07-05 17:00:00 22.4 16 Nordeste 24 Nordeste 0 -- -- 69
2020-07-05 16:00:00 22.9 13 Nordeste 20 Nordeste 0 -- -- 66
2020-07-05 15:00:00 23 14 Norte 24 Norte 0 -- -- 69
2020-07-05 14:00:00 22.5 17 Norte 24 Norte 0 -- -- 71
2020-07-05 13:00:00 23.2 16 Norte 23 Norte 0 -- -- 71
2020-07-05 12:00:00 23.2 12 Norte 18 Norte 0 -- -- 69
2020-07-05 11:00:00 23 6 Nordeste 11 Nordeste 0 -- -- 62
2020-07-05 10:00:00 21.3 4 Este 13 Sudeste 0 -- -- 72
2020-07-05 09:00:00 18.5 7 Sudeste 10 Sudeste 0 -- -- 75
2020-07-05 08:00:00 16.9 7 Sur 13 Sudeste 0 -- -- 82
2020-07-05 07:00:00 14.9 10 Sudeste 14 Sudeste 0 -- -- 88
2020-07-05 06:00:00 14.9 5 Sudoeste 10 Sudoeste 0 -- -- 91
2020-07-05 05:00:00 15.4 7 Sur 13 Sur 0 -- -- 88
2020-07-05 04:00:00 16 9 Sur 14 Sudeste 0 -- -- 86
2020-07-05 03:00:00 16.1 8 Sudeste 12 Sudeste 0 -- -- 88
2020-07-05 02:00:00 16.4 6 Sur 9 Sur 0 -- -- 88
2020-07-05 01:00:00 16.9 4 Sudeste 10 Sur 0 -- -- 87
2020-07-05 00:00:00 17.4 4 Sudoeste 6 Sudoeste 0 -- -- 85
2020-07-04 23:00:00 17.9 0 Calma 6 Sudeste 0 -- -- 83
2020-07-04 22:00:00 18.4 3 Nordeste 12 Norte 0 -- -- 81
2020-07-04 21:00:00 19.6 11 Nordeste 20 Nordeste 0 -- -- 76
2020-07-04 20:00:00 21.4 14 Nordeste 18 Nordeste 0 -- -- 72
2020-07-04 19:00:00 21.5 13 Nordeste 20 Nordeste 0 -- -- 70
2020-07-04 18:00:00 22.6 9 Norte 16 Nordeste 0 -- -- 68
2020-07-04 17:00:00 22 13 Nordeste 25 Nordeste 0 -- -- 70
2020-07-04 16:00:00 21.8 19 Norte 26 Norte 0 -- -- 71
2020-07-04 15:00:00 22.9 14 Norte 21 Norte 0 -- -- 69
2020-07-04 14:00:00 23 7 Nordeste 18 Nordeste 0 -- -- 67
2020-07-04 13:00:00 22 8 Nordeste 19 Nordeste 0 -- -- 67
2020-07-04 12:00:00 22 8 Este 13 Nordeste 0 -- -- 66
2020-07-04 11:00:00 21.1 4 Norte 13 Sur 0 -- -- 69
2020-07-04 10:00:00 19.3 4 Sudoeste 7 Sur 0 -- -- 73
2020-07-04 09:00:00 16.8 3 Sudoeste 10 Sur 0 -- -- 79
2020-07-04 08:00:00 14.4 8 Sur 14 Sudeste 0 -- -- 87
2020-07-04 07:00:00 12.6 8 Sur 14 Sur 0 -- -- 94
2020-07-04 06:00:00 12.6 8 Sur 15 Sudeste 0 -- -- 93
2020-07-04 05:00:00 12.8 8 Sur 12 Sudeste 0 -- -- 93
2020-07-04 04:00:00 13 10 Sur 18 Sudeste 0 -- -- 93
2020-07-04 03:00:00 13.4 12 Sudeste 19 Sudeste 0 -- -- 93
2020-07-04 02:00:00 13.8 10 Sudeste 15 Sudeste 0 -- -- 92
2020-07-04 01:00:00 14.9 10 Sudeste 12 Sudeste 0 -- -- 88
2020-07-04 00:00:00 16.1 0 Calma 5 Este 0 -- -- 83
2020-07-03 23:00:00 16.4 0 Calma 6 Norte 0 -- -- 84
2020-07-03 22:00:00 17 5 Nordeste 12 Nordeste 0 -- -- 79
2020-07-03 21:00:00 18.3 10 Nordeste 17 Nordeste 0 -- -- 75
2020-07-03 20:00:00 18.8 11 Nordeste 19 Nordeste 0 -- -- 73
2020-07-03 19:00:00 18.9 14 Nordeste 24 Nordeste 0 -- -- 73
2020-07-03 18:00:00 19.1 17 Nordeste 29 Nordeste 0 -- -- 73
2020-07-03 17:00:00 20.3 13 Nordeste 26 Nordeste 0 -- -- 72
2020-07-03 16:00:00 19.4 12 Nordeste 21 Norte 0 -- -- 73
2020-07-03 15:00:00 18.8 12 Norte 19 Norte 0 -- -- 75
2020-07-03 14:00:00 19 10 Norte 21 Norte 0 -- -- 73
2020-07-03 13:00:00 19.4 11 Norte 21 Norte 0 -- -- 74
2020-07-03 12:00:00 19.3 11 Norte 16 Norte 0 -- -- 78
2020-07-03 11:00:00 18.9 8 Norte 13 Oeste 0 -- -- 76
2020-07-03 10:00:00 18 5 Sur 9 Sur 0 -- -- 87
2020-07-03 09:00:00 15.1 5 Sur 8 Sur 0 -- -- 94
2020-07-03 08:00:00 14.2 5 Sur 9 Sudoeste 0 -- -- 96
2020-07-03 07:00:00 13.8 7 Sur 11 Sudoeste 0 -- -- 97
2020-07-03 06:00:00 13.7 8 Sudoeste 12 Sudoeste 0 -- -- 97
2020-07-03 05:00:00 13.8 5 Sudoeste 12 Sudoeste 0 -- -- 97
2020-07-03 04:00:00 13.7 8 Sudoeste 17 Sudoeste 0 -- -- 97
2020-07-03 03:00:00 13.7 10 Sudoeste 15 Oeste 0 -- -- 97
2020-07-03 02:00:00 13.7 11 Sudoeste 22 Oeste 0 -- -- 96
2020-07-03 01:00:00 14.1 10 Oeste 22 Oeste 0 -- -- 95
2020-07-03 00:00:00 14.2 6 Oeste 14 Sudoeste 0 -- -- 97
2020-07-02 23:00:00 14.1 9 Sudoeste 17 Oeste 0 -- -- 97
2020-07-02 22:00:00 14.2 14 Oeste 20 Oeste 0.8 -- -- 96
2020-07-02 21:00:00 14.8 12 Noroeste 20 Norte 1.8 -- -- 94
2020-07-02 20:00:00 15.8 4 Este 13 Oeste 0 -- -- 91
2020-07-02 19:00:00 16.3 10 Oeste 17 Oeste 0 -- -- 87
2020-07-02 18:00:00 15.8 12 Oeste 21 Oeste 0 -- -- 89
2020-07-02 17:00:00 16 14 Oeste 19 Oeste 0 -- -- 85
2020-07-02 16:00:00 16.4 3 Nordeste 16 Nordeste 0 -- -- 92
2020-07-02 15:00:00 16.1 11 Nordeste 15 Nordeste 0 -- -- 93
2020-07-02 14:00:00 17 10 Norte 14 Norte 0 -- -- 87
2020-07-02 13:00:00 16.6 13 Norte 21 Noroeste 0 -- -- 87
2020-07-02 12:00:00 17.2 0 Calma 10 Sudoeste 0 -- -- 87
2020-07-02 11:00:00 16 10 Sudoeste 15 Oeste 0 -- -- 96
2020-07-02 10:00:00 15 9 Oeste 15 Oeste 0 -- -- 98
2020-07-02 09:00:00 15 8 Oeste 12 Oeste 0 -- -- 99
2020-07-02 08:00:00 14.6 7 Sudoeste 11 Sudoeste 0 -- -- 99
2020-07-02 07:00:00 14.4 9 Sur 13 Oeste 0 -- -- 99
2020-07-02 06:00:00 14.5 6 Sudoeste 12 Sudoeste 0 -- -- 99
2020-07-02 05:00:00 14.6 8 Sudoeste 18 Noroeste 0 -- -- 99
2020-07-02 04:00:00 14.9 11 Noroeste 15 Noroeste 0.6 -- -- 98
2020-07-02 03:00:00 15.3 5 Oeste 12 Oeste 0 -- -- 99
2020-07-02 02:00:00 15.5 4 Noroeste 12 Oeste 0 -- -- 99
2020-07-02 01:00:00 15.6 6 Sudoeste 12 Sudoeste 0 -- -- 98
2020-07-02 00:00:00 15.8 8 Sudoeste 15 Oeste 0.2 -- -- 98
2020-07-01 23:00:00 16 4 Sudoeste 9 Oeste 0 -- -- 98
2020-07-01 22:00:00 15.9 6 Noroeste 12 Noroeste 0 -- -- 97
2020-07-01 21:00:00 16 4 Norte 16 Noroeste 0 -- -- 97
2020-07-01 20:00:00 16.5 12 Noroeste 24 Noroeste 0 -- -- 97
2020-07-01 19:00:00 16.8 13 Noroeste 26 Noroeste 0.2 -- -- 97
2020-07-01 18:00:00 17.6 15 Noroeste 24 Noroeste 0.2 -- -- 96
2020-07-01 17:00:00 17.9 15 Noroeste 25 Norte 0.2 -- -- 95
2020-07-01 16:00:00 19.4 16 Norte 22 Norte 0 -- -- 87
2020-07-01 15:00:00 20.6 8 Noroeste 17 Noroeste 0 -- -- 85
2020-07-01 14:00:00 19.5 14 Noroeste 21 Noroeste 0 -- -- 86
2020-07-01 13:00:00 19.9 13 Noroeste 21 Noroeste 0 -- -- 85
2020-07-01 12:00:00 21.3 9 Noroeste 14 Oeste 0 -- -- 75
2020-07-01 11:00:00 20.3 9 Noroeste 15 Oeste 0 -- -- 76
2020-07-01 10:00:00 19 8 Oeste -- -- -- -- -- 87
2020-07-01 09:00:00 -- 3 Oeste 7 Oeste 0 -- -- --
2020-07-01 08:00:00 17.5 4 Sudoeste 7 Sudoeste 0 -- -- 89
2020-07-01 07:00:00 16.9 5 Sur 7 Sur 0 -- -- 90
2020-07-01 06:00:00 16.5 6 Sur 12 Sur 0 -- -- 91
2020-07-01 05:00:00 16.5 8 Sudeste 10 Sudeste 0 -- -- 90
2020-07-01 04:00:00 16.6 7 Sur 10 Sur 0 -- -- 91
2020-07-01 03:00:00 17 6 Oeste 8 Oeste 0 -- -- 91
2020-07-01 02:00:00 17.3 5 Sudoeste 15 Sudeste 0 -- -- 94
2020-07-01 01:00:00 17.7 6 Oeste 15 Sudeste 0 -- -- 94
2020-07-01 00:00:00 18 4 Sudeste 10 Sudeste 0 -- -- 93
2020-06-30 23:00:00 18.3 8 Noroeste 12 Noroeste 0 -- -- 91
2020-06-30 22:00:00 19.1 2 Norte 10 Norte 0 -- -- 87
2020-06-30 21:00:00 19.7 8 Noroeste 11 Noroeste 0 -- -- 85
2020-06-30 20:00:00 20.2 7 Norte 13 Norte 0 -- -- 82
2020-06-30 19:00:00 21.4 11 Norte 19 Noroeste 0 -- -- 69
2020-06-30 18:00:00 23 13 Nordeste 21 Norte 0 -- -- 54
2020-06-30 17:00:00 23.9 13 Norte 22 Norte 0 -- -- 57
2020-06-30 16:00:00 23.1 14 Norte 22 Norte 0 -- -- 64
2020-06-30 15:00:00 23.4 15 Norte 23 Norte 0 -- -- 65
2020-06-30 14:00:00 23.1 13 Norte 22 Nordeste 0 -- -- 69
2020-06-30 13:00:00 23.2 12 Nordeste 21 Nordeste 0 -- -- 68
2020-06-30 12:00:00 23.2 6 Nordeste 14 Norte 0 -- -- 62
2020-06-30 11:00:00 22.3 6 Nordeste 10 Este 0 -- -- 66
2020-06-30 10:00:00 20.3 5 Este 13 Sudeste 0 -- -- 71
2020-06-30 09:00:00 18.2 7 Sudeste 12 Sudeste 0 -- -- 77
2020-06-30 08:00:00 16.1 8 Sudeste 13 Sudeste 0 -- -- 87
2020-06-30 07:00:00 14.3 8 Sur 14 Sudeste 0 -- -- 96
2020-06-30 06:00:00 14.3 7 Sudeste 11 Sur 0 -- -- 97
2020-06-30 05:00:00 14.5 5 Sur 11 Sudeste 0 -- -- 97
2020-06-30 04:00:00 15 5 Sur 12 Sudoeste 0 -- -- 96
2020-06-30 03:00:00 15 7 Sudoeste 9 Sur 0 -- -- 95
2020-06-30 02:00:00 15.7 6 Sudeste 8 Sudeste 0 -- -- 94
2020-06-30 01:00:00 16.1 5 Sur 7 Sur 0 -- -- 91
2020-06-30 00:00:00 16.8 4 Sur -- -- 0 -- -- 89
2020-06-29 23:00:00 16.7 3 Nordeste 10 Norte 0 -- -- 88
2020-06-29 22:00:00 17.1 7 Norte 10 Norte 0 -- -- 86
2020-06-29 21:00:00 17.9 5 Norte 9 Nordeste 0 -- -- 85
2020-06-29 20:00:00 17.9 7 Nordeste 15 Norte 0 -- -- 83
2020-06-29 19:00:00 18.5 6 Nordeste 13 Nordeste 0 -- -- 83
2020-06-29 18:00:00 18.6 10 Norte 14 Norte 0 -- -- 83
2020-06-29 17:00:00 18.6 8 Nordeste 13 Norte 0 -- -- 82
2020-06-29 16:00:00 18.6 5 Nordeste 14 Nordeste 0 -- -- 82
2020-06-29 15:00:00 18.1 8 Nordeste 14 Norte 0 -- -- 85
2020-06-29 14:00:00 17.5 9 Nordeste 15 Nordeste 0 -- -- 89
2020-06-29 13:00:00 17.3 9 Nordeste 17 Nordeste 0 -- -- 94
2020-06-29 12:00:00 16.4 11 Nordeste 16 Nordeste 0 -- -- 99
2020-06-29 11:00:00 16.2 9 Norte 14 Nordeste 0 -- -- 99
2020-06-29 10:00:00 16.3 4 Nordeste 10 Norte 0 -- -- 99
2020-06-29 09:00:00 15.8 6 Norte 9 Norte 0 -- -- 98
2020-06-29 08:00:00 15.9 4 Sudoeste 10 Sudoeste 0 -- -- 98
2020-06-29 07:00:00 15.8 6 Sudoeste 9 Sudoeste 0 -- -- 98
2020-06-29 06:00:00 15.7 5 Sur 7 Norte 0 -- -- 98
2020-06-29 05:00:00 16 3 Norte 8 Norte 0.4 -- -- 98
2020-06-29 04:00:00 16 5 Oeste 11 Oeste 0 -- -- 98
2020-06-29 03:00:00 16.2 8 Oeste 12 Noroeste 0 -- -- 98
2020-06-29 02:00:00 16.3 8 Oeste 13 Oeste 0 -- -- 97
2020-06-29 01:00:00 16.5 9 Oeste 21 Noroeste 0 -- -- 97
2020-06-29 00:00:00 16.9 14 Noroeste 21 Noroeste 0 -- -- 97
2020-06-28 23:00:00 17.9 11 Noroeste 19 Oeste 0.4 -- -- 96
2020-06-28 22:00:00 18.1 3 Sudoeste 13 Oeste 0.2 -- -- 94
2020-06-28 21:00:00 18.9 11 Noroeste 17 Noroeste 0 -- -- 88
2020-06-28 20:00:00 19.8 10 Noroeste 17 Noroeste 0 -- -- 82
2020-06-28 19:00:00 20.5 11 Noroeste 18 Noroeste 0 -- -- 76
2020-06-28 18:00:00 22.8 9 Norte 24 Norte 0 -- -- 70
2020-06-28 17:00:00 23.2 14 Norte 24 Noroeste 0 -- -- 66
2020-06-28 16:00:00 23.7 16 Norte 24 Noroeste 0 -- -- 63
2020-06-28 15:00:00 24.3 13 Noroeste 24 Noroeste 0 -- -- 59
2020-06-28 14:00:00 24.9 14 Noroeste 26 Norte 0 -- -- 59
2020-06-28 13:00:00 24.9 12 Noroeste 18 Norte 0 -- -- 61
2020-06-28 12:00:00 23.8 4 Nordeste 15 Sudeste 0 -- -- 72
2020-06-28 11:00:00 22.2 7 Nordeste 12 Nordeste 0 -- -- 75
2020-06-28 10:00:00 21.3 8 Sudeste 12 Sudeste 0 -- -- 75
2020-06-28 09:00:00 19.9 5 Este 8 Sudeste 0 -- -- 86
2020-06-28 08:00:00 17.2 2 Sudeste 12 Sudeste 0 -- -- 96
2020-06-28 07:00:00 16.8 6 Sudeste 11 Sudeste 0 -- -- 96
2020-06-28 06:00:00 16.8 4 Sur 9 Sur 0 -- -- 96
2020-06-28 05:00:00 16.8 5 Sudoeste 9 Sudoeste 0 -- -- 96
2020-06-28 04:00:00 16.8 6 Sudoeste 8 Sudoeste 0 -- -- 96
2020-06-28 03:00:00 16.7 4 Sudoeste 7 Sur 0 -- -- 96
2020-06-28 02:00:00 16.5 6 Oeste 13 Oeste 0 -- -- 95
2020-06-28 01:00:00 17 7 Oeste 13 Oeste 0 -- -- 93
2020-06-28 00:00:00 17.6 10 Oeste 15 Oeste 0 -- -- 89
2020-06-27 23:00:00 17.8 7 Noroeste 14 Noroeste 0 -- -- 89
2020-06-27 22:00:00 18 8 Noroeste 16 Noroeste 0 -- -- 89
2020-06-27 21:00:00 18.1 11 Norte 24 Norte 0 -- -- 89
2020-06-27 20:00:00 19.1 16 Norte 22 Norte 0 -- -- 88
2020-06-27 19:00:00 20.7 10 Noroeste 26 Norte 0 -- -- 81
2020-06-27 18:00:00 21 18 Norte 29 Norte 0 -- -- 83
2020-06-27 17:00:00 24.6 17 Norte 27 Norte 0 -- -- 66
2020-06-27 16:00:00 24.2 9 Nordeste 19 Nordeste 0 -- -- 65
2020-06-27 15:00:00 24.7 13 Nordeste 21 Norte 0 -- -- 64
2020-06-27 14:00:00 25.7 15 Norte 22 Norte 0 -- -- 59
2020-06-27 13:00:00 26 7 Nordeste 14 Este 0 -- -- 60
2020-06-27 12:00:00 25.4 5 Sudeste 10 Oeste 0 -- -- 60
2020-06-27 11:00:00 23.5 4 Oeste 8 Oeste 0 -- -- 60
2020-06-27 10:00:00 21.3 5 Sur 12 Sur 0 -- -- 71
2020-06-27 09:00:00 18.5 5 Sur 10 Sudoeste 0 -- -- 78
2020-06-27 08:00:00 15.2 8 Sur 14 Sudoeste 0 -- -- 89
2020-06-27 07:00:00 14.2 10 Sudoeste 13 Sudoeste 0 -- -- 93
2020-06-27 06:00:00 14.7 10 Sudoeste 16 Sudeste 0 -- -- 89
2020-06-27 05:00:00 14.9 12 Sudeste 21 Sudeste 0 -- -- 88
2020-06-27 04:00:00 15.2 13 Sur 19 Sudeste 0 -- -- 88
2020-06-27 03:00:00 15.8 4 Sur 16 Sudeste 0 -- -- 89
2020-06-27 02:00:00 16 11 Sudeste 19 Sudeste 0 -- -- 91
2020-06-27 01:00:00 16.4 11 Sudeste 18 Sudeste 0 -- -- 94
2020-06-27 00:00:00 16.7 9 Sur 17 Sudeste 0 -- -- 96
2020-06-26 23:00:00 16.9 12 Sudeste 19 Sudeste 0 -- -- 95
2020-06-26 22:00:00 17.5 10 Sudeste 16 Sudeste 0 -- -- 92
2020-06-26 21:00:00 18.9 4 Este 12 Este 0 -- -- 88
2020-06-26 20:00:00 20.2 5 Sudeste 13 Este 0 -- -- 85
2020-06-26 19:00:00 19 9 Este 14 Este 0 -- -- 88
2020-06-26 18:00:00 17.8 10 Nordeste 14 Nordeste 0 -- -- 90
2020-06-26 17:00:00 17.9 8 Nordeste 12 Nordeste 0 -- -- 90
2020-06-26 16:00:00 17.5 5 Norte 14 Norte 0 -- -- 92
2020-06-26 15:00:00 16.7 11 Noroeste 17 Noroeste 0 -- -- 94
2020-06-26 14:00:00 17.1 6 Norte 12 Noroeste 0 -- -- 95
2020-06-26 13:00:00 17.1 4 Norte 9 Nordeste 0 -- -- 96
2020-06-26 12:00:00 16.6 3 Noroeste 8 Oeste 0 -- -- 98
2020-06-26 11:00:00 16.3 6 Oeste 9 Oeste 0 -- -- 98
2020-06-26 10:00:00 16.2 5 Sudoeste 8 Oeste 0 -- -- 99
2020-06-26 09:00:00 15.9 5 Oeste 9 Oeste 0 -- -- 99
2020-06-26 08:00:00 15.7 3 Oeste 8 Oeste 0 -- -- 99
2020-06-26 07:00:00 15.6 4 Oeste 8 Oeste 0 -- -- 99
2020-06-26 06:00:00 15.5 6 Oeste 12 Oeste 0 -- -- 99
2020-06-26 05:00:00 15.6 6 Oeste 9 Oeste 0 -- -- 99
2020-06-26 04:00:00 15.7 4 Oeste 12 Oeste 0 -- -- 98
2020-06-26 03:00:00 15.8 8 Oeste 13 Oeste 0 -- -- 98
2020-06-26 02:00:00 16 5 Oeste 15 Oeste 0 -- -- 98
2020-06-26 01:00:00 16.2 6 Oeste 10 Oeste 0 -- -- 97
2020-06-26 00:00:00 16.3 6 Oeste 15 Oeste 0 -- -- 97
2020-06-25 23:00:00 16.4 10 Oeste 18 Noroeste 0 -- -- 97
2020-06-25 22:00:00 16.4 5 Oeste 13 Oeste 2.2 -- -- 96
2020-06-25 21:00:00 16.8 9 Oeste 22 Nordeste 2.2 -- -- 94
2020-06-25 20:00:00 17.8 5 Sur 15 Oeste 0.2 -- -- 91
2020-06-25 19:00:00 17.2 14 Oeste 24 Oeste 0 -- -- 94
2020-06-25 18:00:00 17.2 17 Oeste 28 Noroeste 0 -- -- 94
2020-06-25 17:00:00 17.5 10 Oeste 16 Noroeste 0 -- -- 95
2020-06-25 16:00:00 17.1 8 Noroeste 22 Oeste 0.4 -- -- 96
2020-06-25 15:00:00 17.1 14 Nordeste 31 Este 0.6 -- -- 94
2020-06-25 14:00:00 17.6 14 Norte 25 Oeste 0.2 -- -- 93
2020-06-25 13:00:00 18.3 12 Noroeste 16 Noroeste 0 -- -- 89
2020-06-25 12:00:00 18.9 10 Noroeste 15 Noroeste 0 -- -- 91
2020-06-25 11:00:00 17.6 13 Noroeste 20 Oeste 0 -- -- 94
2020-06-25 10:00:00 17.4 12 Nordeste 18 Oeste 0.2 -- -- 93
2020-06-25 09:00:00 17.7 12 Noroeste 18 Oeste 0 -- -- 93
2020-06-25 08:00:00 17.3 6 Noroeste 13 Noroeste 0 -- -- 93
2020-06-25 07:00:00 17.1 8 Oeste 18 Oeste 0 -- -- 91
2020-06-25 06:00:00 17.3 8 Noroeste 25 Oeste 0 -- -- 86
2020-06-25 05:00:00 17.6 5 Oeste 18 Oeste 0 -- -- 87
2020-06-25 04:00:00 17.9 13 Oeste 30 Oeste 0 -- -- 88
2020-06-25 03:00:00 18.8 17 Noroeste 32 Oeste 0 -- -- 87
2020-06-25 02:00:00 19 14 Sudeste 21 Sudeste 0 -- -- 88
2020-06-25 01:00:00 18.1 11 Sudeste 14 Sudeste 0 -- -- 89
2020-06-25 00:00:00 18.5 6 Norte 16 Nordeste 0 -- -- 87
2020-06-24 23:00:00 19.4 5 Noroeste 11 Oeste 0 -- -- 85
2020-06-24 22:00:00 19.3 7 Sur 10 Sudeste 0 -- -- 87
2020-06-24 21:00:00 19.5 8 Sur 20 Oeste 0 -- -- 82
2020-06-24 20:00:00 19.3 15 Oeste 34 Oeste 0 -- -- 82
2020-06-24 19:00:00 19 24 Oeste 40 Oeste 0 -- -- 87
2020-06-24 18:00:00 19.6 19 Noroeste 26 Noroeste 0 -- -- 86
2020-06-24 17:00:00 21.4 13 Noroeste 22 Norte 0 -- -- 83
2020-06-24 16:00:00 22.8 12 Norte 20 Norte 0 -- -- 78
2020-06-24 15:00:00 21.4 12 Norte 19 Norte 0 -- -- 82
2020-06-24 14:00:00 20.9 8 Noroeste 17 Noroeste -- -- -- 86
2020-06-24 13:00:00 19.6 10 Noroeste 17 Noroeste -- -- -- 90
2020-06-24 12:00:00 18.7 9 Norte 14 Noroeste 0 -- -- 93
2020-06-24 11:00:00 18.6 12 Noroeste 21 Noroeste 0 -- -- 96
2020-06-24 10:00:00 17.9 16 Noroeste 23 Noroeste 0 -- -- 96
2020-06-24 09:00:00 17.9 10 Noroeste 15 Norte 0 -- -- 96
2020-06-24 08:00:00 19.6 3 Norte 7 Norte 0 -- -- 93
2020-06-24 07:00:00 17.9 3 Norte 8 Oeste 0 -- -- 96
2020-06-24 06:00:00 18.1 5 Norte 9 Norte 0 -- -- 94
2020-06-24 05:00:00 18.6 5 Oeste 10 Sur 0 -- -- 94
2020-06-24 04:00:00 18.9 5 Nordeste 14 Oeste 0 -- -- 94
2020-06-24 03:00:00 18.8 5 Nordeste 15 Sudeste 0 -- -- 91
2020-06-24 02:00:00 20 3 Sudeste 9 Oeste 0 -- -- 90
2020-06-24 01:00:00 20.1 5 Sudoeste 7 Sudoeste 0 -- -- 86
2020-06-24 00:00:00 20.6 3 Sur 5 Sur 0 -- -- 84
2020-06-23 23:00:00 21.1 0 Calma 7 Norte 0 -- -- 81
2020-06-23 22:00:00 22.7 6 Norte 8 Norte 0 -- -- 77
2020-06-23 21:00:00 24.5 7 Nordeste 13 Nordeste 0 -- -- 74
2020-06-23 20:00:00 26 10 Norte 15 Norte 0 -- -- 70
2020-06-23 19:00:00 27 11 Norte 17 Norte 0 -- -- 69
2020-06-23 18:00:00 27.4 11 Norte 19 Nordeste 0 -- -- 64
2020-06-23 17:00:00 28.1 13 Norte 19 Norte 0 -- -- 66
2020-06-23 16:00:00 27.6 15 Norte 21 Norte 0 -- -- 68
2020-06-23 15:00:00 28 13 Norte 21 Norte 0 -- -- 71
2020-06-23 14:00:00 28.2 11 Norte 17 Norte 0 -- -- 60
2020-06-23 13:00:00 27.9 5 Nordeste 13 Nordeste 0 -- -- 60
2020-06-23 12:00:00 26.6 7 Este 17 Este 0 -- -- 65
2020-06-23 11:00:00 24.4 12 Este 18 Este 0 -- -- 65
2020-06-23 10:00:00 22.3 6 Sudeste 15 Sudeste 0 -- -- 75
2020-06-23 09:00:00 19.1 10 Sudeste 16 Sudeste 0 -- -- 83
2020-06-23 08:00:00 16.9 13 Sudeste 17 Sudeste 0 -- -- 93
2020-06-23 07:00:00 15.1 12 Sudeste 16 Sudeste 0 -- -- 98
2020-06-23 06:00:00 15.4 10 Sudeste 15 Sudeste 0 -- -- 98
2020-06-23 05:00:00 15 9 Sur 14 Sudeste 0 -- -- 97
2020-06-23 04:00:00 15.5 5 Sudoeste 10 Sudeste 0 -- -- 96
2020-06-23 03:00:00 15.9 6 Sudeste 10 Sudeste 0 -- -- 96
2020-06-23 02:00:00 16.4 9 Sudeste 15 Sudeste 0 -- -- 95
2020-06-23 01:00:00 16.7 5 Este 9 Este 0 -- -- 92
2020-06-23 00:00:00 17.1 7 Este 11 Este 0 -- -- 89
2020-06-22 23:00:00 18 10 Este 15 Este 0 -- -- 86
2020-06-22 22:00:00 19.4 9 Este 14 Este 0 -- -- 83
2020-06-22 21:00:00 21.2 9 Nordeste 15 Nordeste 0 -- -- 78
2020-06-22 20:00:00 22.6 12 Nordeste 19 Nordeste 0 -- -- 75
2020-06-22 19:00:00 23.5 16 Nordeste 21 Nordeste 0 -- -- 73
2020-06-22 18:00:00 24.2 13 Nordeste 26 Nordeste 0 -- -- 73
2020-06-22 17:00:00 24.3 18 Nordeste 29 Nordeste 0 -- -- 73
2020-06-22 16:00:00 24.1 21 Nordeste 29 Nordeste 0 -- -- 75
2020-06-22 15:00:00 24.6 20 Nordeste 27 Nordeste 0 -- -- 76
2020-06-22 14:00:00 24.7 14 Nordeste 23 Este 0 -- -- 74
2020-06-22 13:00:00 24.2 15 Nordeste 26 Nordeste 0 -- -- 74
2020-06-22 12:00:00 23.9 12 Este 20 Este 0 -- -- 74
2020-06-22 11:00:00 22.4 13 Este 20 Este 0 -- -- 75
2020-06-22 10:00:00 21.3 12 Este 19 Sudeste 0 -- -- 78
2020-06-22 09:00:00 19.6 7 Sudeste 13 Sudeste 0 -- -- 87
2020-06-22 08:00:00 16.5 6 Este 12 Sudoeste 0 -- -- 98
2020-06-22 07:00:00 16.3 8 Este 12 Este 0 -- -- 97
2020-06-22 06:00:00 16.6 8 Sudeste 10 Este 0 -- -- 96
2020-06-22 05:00:00 17.2 5 Sudeste 8 Este 0 -- -- 95
2020-06-22 04:00:00 17.8 3 Sudeste 4 Sudeste 0 -- -- 94
2020-06-22 03:00:00 17.9 3 Nordeste 4 Nordeste 0 -- -- 94
2020-06-22 02:00:00 18.1 2 Este 4 Nordeste 0 -- -- 93
2020-06-22 01:00:00 18.2 4 Norte 5 Norte 0 -- -- 91
2020-06-22 00:00:00 18.3 0 Calma -- -- 0 -- -- 90
2020-06-21 23:00:00 18.4 6 Nordeste 12 Nordeste 0 -- -- 88
2020-06-21 22:00:00 18.9 10 Norte 20 Norte 0 -- -- 82
2020-06-21 21:00:00 19.8 11 Nordeste 17 Nordeste 0 -- -- 73
2020-06-21 20:00:00 20.8 10 Norte 14 Norte 0 -- -- 68
2020-06-21 19:00:00 21.6 8 Norte 22 Noroeste 0 -- -- 66
2020-06-21 18:00:00 22.8 5 Norte 15 Nordeste 0 -- -- 62
2020-06-21 17:00:00 23.7 8 Norte 26 Norte 0 -- -- 63
2020-06-21 16:00:00 23.3 14 Nordeste 27 Norte 0 -- -- 64
2020-06-21 15:00:00 23.4 19 Norte 27 Norte 0 -- -- 66
2020-06-21 14:00:00 23.4 6 Norte 19 Nordeste 0 -- -- 65
2020-06-21 13:00:00 22.5 10 Norte 22 Norte 0 -- -- 67
2020-06-21 12:00:00 22.2 13 Noroeste 23 Norte 0 -- -- 67
2020-06-21 11:00:00 21.5 12 Noroeste 19 Oeste 0 -- -- 69
2020-06-21 10:00:00 20.6 7 Oeste 12 Oeste 0 -- -- 74
2020-06-21 09:00:00 18.3 6 Sudoeste 9 Sudoeste 0 -- -- 81
2020-06-21 08:00:00 15.9 6 Sudoeste 13 Sudoeste 0 -- -- 88
2020-06-21 07:00:00 14.1 7 Oeste 12 Sudoeste 0 -- -- 93
2020-06-21 06:00:00 14.2 6 Sur 14 Sudeste 0 -- -- 93
2020-06-21 05:00:00 14.2 8 Sur 13 Sudeste 0 -- -- 94
2020-06-21 04:00:00 14.5 8 Sudoeste 10 Sudoeste 0 -- -- 92
2020-06-21 03:00:00 14.9 8 Sudoeste 12 Sudoeste 0 -- -- 91
2020-06-21 02:00:00 15.3 8 Sudoeste 14 Oeste 0 -- -- 90
2020-06-21 01:00:00 16 8 Sudoeste 9 Sudoeste 0 -- -- 90
2020-06-21 00:00:00 16.7 3 Oeste 6 Norte 0 -- -- 92
2020-06-20 23:00:00 17.1 0 Calma 8 Norte 0 -- -- 90
2020-06-20 22:00:00 18.2 6 Norte 9 Norte 0 -- -- 83
2020-06-20 21:00:00 20.5 7 Nordeste 12 Nordeste 0 -- -- 69
2020-06-20 20:00:00 21 10 Nordeste 18 Nordeste 0 -- -- 67
2020-06-20 19:00:00 21.6 14 Norte 25 Nordeste 0 -- -- 67
2020-06-20 18:00:00 22.4 14 Nordeste 22 Nordeste 0 -- -- 62
2020-06-20 17:00:00 22.4 15 Nordeste 27 Nordeste 0 -- -- 62
2020-06-20 16:00:00 22.1 18 Norte 31 Nordeste 0 -- -- 62
2020-06-20 15:00:00 21.9 20 Norte 29 Nordeste 0 -- -- 60
2020-06-20 14:00:00 22.3 21 Norte 29 Norte 0 -- -- 62
2020-06-20 13:00:00 22.7 14 Nordeste 24 Nordeste 0 -- -- 66
2020-06-20 12:00:00 22.1 9 Nordeste 17 Este 0 -- -- 65
2020-06-20 11:00:00 21.2 8 Este 14 Este 0 -- -- 66
2020-06-20 10:00:00 19.5 8 Este 14 Sudeste 0 -- -- 71
2020-06-20 09:00:00 16.9 6 Sudeste 13 Sudeste 0 -- -- 77
2020-06-20 08:00:00 14.3 10 Sur 15 Sudeste 0 -- -- 85
2020-06-20 07:00:00 12.8 10 Sudeste 14 Sudeste 0 -- -- 91
2020-06-20 06:00:00 12.8 11 Sudeste 15 Sudeste 0 -- -- 92
2020-06-20 05:00:00 13 6 Sur 13 Sur 0 -- -- 92
2020-06-20 04:00:00 13.3 10 Sudeste 16 Sudeste 0 -- -- 93
2020-06-20 03:00:00 13.6 10 Sudeste 14 Sudeste 0 -- -- 93
2020-06-20 02:00:00 13.9 6 Sur 15 Sudeste 0 -- -- 92
2020-06-20 01:00:00 14.2 9 Sudeste 14 Sudeste 0 -- -- 92
2020-06-20 00:00:00 15.3 6 Sudeste 7 Sudeste 0 -- -- 89
2020-06-19 23:00:00 15.7 5 Sur 8 Nordeste 0 -- -- 88
2020-06-19 22:00:00 16 6 Norte 9 Norte 0 -- -- 86
2020-06-19 21:00:00 17 5 Norte 15 Norte 0 -- -- 83
2020-06-19 20:00:00 17.4 10 Norte 14 Norte 0 -- -- 81
2020-06-19 19:00:00 18.3 5 Norte 12 Norte 0 -- -- 76
2020-06-19 18:00:00 18.1 7 Norte 15 Norte 0 -- -- 79
2020-06-19 17:00:00 17.7 12 Norte 21 Norte 0 -- -- 76
2020-06-19 16:00:00 18.6 13 Nordeste 21 Norte 0 -- -- 74
2020-06-19 15:00:00 20 13 Nordeste 23 Nordeste 0 -- -- 68
2020-06-19 14:00:00 19.8 14 Norte 24 Nordeste 0 -- -- 70
2020-06-19 13:00:00 19.4 11 Nordeste 24 Nordeste 0 -- -- 65
2020-06-19 12:00:00 20.1 11 Nordeste 21 Nordeste 0 -- -- 69
2020-06-19 11:00:00 19.1 8 Nordeste 13 Norte 0 -- -- 68
2020-06-19 10:00:00 16.6 0 Calma 8 Sudeste 0 -- -- 84
2020-06-19 09:00:00 14.7 6 Sur 8 Sur 0 -- -- 89
2020-06-19 08:00:00 14.1 5 Sudoeste 9 Sudoeste 0 -- -- 90
2020-06-19 07:00:00 13.7 5 Sur 10 Sudeste 0 -- -- 91
2020-06-19 06:00:00 13.7 8 Sudeste 13 Sudeste 0 -- -- 90
2020-06-19 05:00:00 13.8 10 Sudeste 13 Sudeste 0 -- -- 91
2020-06-19 04:00:00 14 8 Sudeste 13 Sudeste 0 -- -- 91
2020-06-19 03:00:00 14.3 9 Sudeste 12 Sudeste 0 -- -- 90
2020-06-19 02:00:00 14.8 5 Sur 7 Sur 0 -- -- 89
2020-06-19 01:00:00 15.1 2 Sur 6 Sur 0 -- -- 87
2020-06-19 00:00:00 15 5 Sur 6 Sur 0 -- -- 87
2020-06-18 23:00:00 14.7 4 Nordeste 8 Nordeste 0 -- -- 88
2020-06-18 22:00:00 14.8 7 Nordeste 13 Nordeste 0 -- -- 84
2020-06-18 21:00:00 16.3 9 Nordeste 15 Nordeste 0 -- -- 78
2020-06-18 20:00:00 16.7 10 Nordeste 15 Norte 0 -- -- 77
2020-06-18 19:00:00 17.6 12 Norte 18 Norte 0 -- -- 72
2020-06-18 18:00:00 18.4 10 Nordeste 23 Norte 0 -- -- 67
2020-06-18 17:00:00 18.8 15 Nordeste 24 Nordeste 0 -- -- 69
2020-06-18 16:00:00 19 16 Nordeste 25 Nordeste 0 -- -- 75
2020-06-18 15:00:00 18.4 15 Norte 23 Norte 0 -- -- 71
2020-06-18 14:00:00 19 11 Norte 18 Nordeste 0 -- -- 68
2020-06-18 13:00:00 18.2 11 Norte 17 Norte 0 -- -- 73
2020-06-18 12:00:00 17.5 7 Norte 15 Noroeste 0 -- -- 75
2020-06-18 11:00:00 18 7 Noroeste 15 Noroeste 0 -- -- 72
2020-06-18 10:00:00 16.7 5 Noroeste 12 Noroeste 0 -- -- 82
2020-06-18 09:00:00 14.3 5 Sur 10 Sur 0 -- -- 95
2020-06-18 08:00:00 13.2 7 Sur 12 Sur 0 -- -- 96
2020-06-18 07:00:00 12.8 5 Sur 11 Sur 0 -- -- 97
2020-06-18 06:00:00 12.7 8 Sur 12 Sudoeste 0 -- -- 96
2020-06-18 05:00:00 12.9 6 Sudoeste 10 Sur 0 -- -- 96
2020-06-18 04:00:00 13 9 Sudoeste 14 Sudoeste 0 -- -- 96
2020-06-18 03:00:00 13 7 Sudoeste 10 Sudoeste 0 -- -- 95
2020-06-18 02:00:00 13.1 5 Oeste 14 Sudoeste 1.2 -- -- 94
2020-06-18 01:00:00 13.7 8 Oeste 13 Oeste 0 -- -- 90
2020-06-18 00:00:00 14 9 Sudoeste 14 Oeste 0 -- -- 90
2020-06-17 23:00:00 14.1 13 Oeste 19 Oeste 0 -- -- 89
2020-06-17 22:00:00 15.1 9 Oeste 15 Oeste 0 -- -- 85
2020-06-17 21:00:00 15.5 9 Noroeste 14 Noroeste 0 -- -- 83
2020-06-17 20:00:00 16.2 9 Noroeste 15 Noroeste 0 -- -- 80
2020-06-17 19:00:00 17.1 8 Norte 21 Noroeste 0 -- -- 77
2020-06-17 18:00:00 17.2 12 Noroeste 23 Norte 0 -- -- 73
2020-06-17 17:00:00 18.1 15 Noroeste 29 Norte 0 -- -- 73
2020-06-17 16:00:00 18.1 20 Noroeste 35 Noroeste 0 -- -- 74
2020-06-17 15:00:00 17.8 22 Noroeste 36 Noroeste 0 -- -- 72
2020-06-17 14:00:00 18 21 Noroeste 36 Noroeste 0 -- -- 75
2020-06-17 13:00:00 18.1 25 Noroeste 36 Noroeste 0 -- -- 72
2020-06-17 12:00:00 18.1 17 Noroeste 34 Noroeste 0 -- -- 72
2020-06-17 11:00:00 16.8 21 Noroeste 34 Noroeste 0 -- -- 74
2020-06-17 10:00:00 16 12 Oeste 27 Oeste 0 -- -- 82
2020-06-17 09:00:00 17.3 6 Oeste 15 Oeste 0 -- -- 75
2020-06-17 08:00:00 14.2 9 Sudoeste 15 Sudoeste 0 -- -- 89
2020-06-17 07:00:00 13.1 8 Oeste 15 Sudoeste 0 -- -- 92
2020-06-17 06:00:00 12.9 11 Sudoeste 14 Sudoeste 0 -- -- 92
2020-06-17 05:00:00 13.4 10 Sudoeste 15 Sudoeste 0 -- -- 90
2020-06-17 04:00:00 13.3 9 Sudoeste 14 Sudoeste 0 -- -- 91
2020-06-17 03:00:00 13.7 7 Sudoeste 20 Oeste 0 -- -- 91
2020-06-17 02:00:00 14.2 14 Oeste 31 Oeste 0 -- -- 88
2020-06-17 01:00:00 14.6 13 Oeste 25 Oeste 0 -- -- 89
2020-06-17 00:00:00 14.8 18 Oeste 31 Oeste 0 -- -- 90
2020-06-16 23:00:00 14.8 17 Noroeste 35 Oeste 0 -- -- 91
2020-06-16 22:00:00 15.1 17 Noroeste 36 Noroeste 0 -- -- 88
2020-06-16 21:00:00 15.4 19 Noroeste 33 Noroeste 0 -- -- 85
2020-06-16 20:00:00 15.6 19 Noroeste 37 Oeste 0 -- -- 84
2020-06-16 19:00:00 16.2 14 Noroeste 33 Noroeste 0 -- -- 82
2020-06-16 18:00:00 16.4 16 Noroeste 36 Noroeste 0 -- -- 82
2020-06-16 17:00:00 16.4 21 Noroeste 33 Noroeste 0 -- -- 82
2020-06-16 16:00:00 14.9 15 Oeste 28 Oeste 0.4 -- -- 91
2020-06-16 15:00:00 15.3 14 Oeste 28 Oeste 0 -- -- 89
2020-06-16 14:00:00 15 8 Norte 21 Noroeste 1.2 -- -- 95
2020-06-16 13:00:00 15 10 Noroeste 16 Norte 0 -- -- 93
2020-06-16 12:00:00 15.1 7 Norte 21 Noroeste 0.4 -- -- 95
2020-06-16 11:00:00 14.6 14 Noroeste 27 Noroeste 0 -- -- 93
2020-06-16 10:00:00 15.3 6 Oeste 12 Oeste 0.2 -- -- 93
2020-06-16 09:00:00 14.9 2 Sudeste 6 Oeste 0 -- -- 94
2020-06-16 08:00:00 14.1 3 Sudoeste 8 Sur 0 -- -- 95
2020-06-16 07:00:00 13.7 6 Sur 10 Sudeste 0 -- -- 95
2020-06-16 06:00:00 13.6 5 Sudeste 13 Sudeste 0 -- -- 96
2020-06-16 05:00:00 14 6 Sur 18 Sudeste 0 -- -- 96
2020-06-16 04:00:00 14.2 6 Sur 11 Sudoeste 0 -- -- 96
2020-06-16 03:00:00 14.2 5 Sur 8 Sur 0 -- -- 96
2020-06-16 02:00:00 14.1 5 Sur 12 Sudeste 0.2 -- -- 96
2020-06-16 01:00:00 14.2 6 Sur 10 Sur 0 -- -- 95
2020-06-16 00:00:00 14.2 7 Sur 13 Sudeste 0 -- -- 94
2020-06-15 23:00:00 14.4 10 Sudeste 14 Sudeste 0 -- -- 94
2020-06-15 22:00:00 14.7 6 Sur 10 Sudoeste 0 -- -- 94
2020-06-15 21:00:00 15.2 4 Sur 10 Sudoeste 0 -- -- 93
2020-06-15 20:00:00 15.7 8 Sudoeste 11 Sudoeste 0 -- -- 89
2020-06-15 19:00:00 15.8 9 Sudoeste 12 Sudoeste 0.2 -- -- 89
2020-06-15 18:00:00 15.9 4 Sudoeste 11 Noroeste 1.4 -- -- 88
2020-06-15 17:00:00 16.7 9 Noroeste 24 Noroeste 0.8 -- -- 78
2020-06-15 16:00:00 19.9 16 Norte 27 Noroeste 0 -- -- 66
2020-06-15 15:00:00 19.8 15 Norte 25 Norte 0 -- -- 61
2020-06-15 14:00:00 20.6 16 Norte 24 Norte 0 -- -- 58
2020-06-15 13:00:00 20.5 16 Norte 22 Norte 0 -- -- 60
2020-06-15 12:00:00 21.2 5 Este 10 Norte 0 -- -- 61
2020-06-15 11:00:00 20 4 Oeste 12 Sur 0 -- -- 69
2020-06-15 10:00:00 16.9 9 Sur 12 Sudeste 0 -- -- 87
2020-06-15 09:00:00 15.3 6 Sudeste 9 Sur 0 -- -- 93
2020-06-15 08:00:00 14.4 3 Sudoeste 13 Sur 0 -- -- 94
2020-06-15 07:00:00 14.1 7 Sur 16 Sur 0.6 -- -- 94
2020-06-15 06:00:00 14.1 10 Sur 13 Sur 0.2 -- -- 94
2020-06-15 05:00:00 14.1 7 Sur 9 Sudeste 0 -- -- 94
2020-06-15 04:00:00 14.2 7 Sur 12 Sudeste 0 -- -- 94
2020-06-15 03:00:00 14.3 8 Sur 12 Sudeste 0 -- -- 95
2020-06-15 02:00:00 14.4 5 Sur 12 Sudeste 0 -- -- 95
2020-06-15 01:00:00 14.5 6 Sur 10 Sudeste 0 -- -- 94
2020-06-15 00:00:00 14.7 9 Sudoeste 12 Sudoeste 0 -- -- 93
2020-06-14 23:00:00 14.8 8 Sudoeste 11 Sudoeste 0 -- -- 91
2020-06-14 22:00:00 15.1 8 Sudoeste 15 Oeste 0.2 -- -- 90
2020-06-14 21:00:00 15.6 11 Noroeste 19 Noroeste 0 -- -- 87
2020-06-14 20:00:00 17 15 Noroeste 22 Noroeste 0 -- -- 79
2020-06-14 19:00:00 17.9 14 Noroeste 21 Noroeste 0 -- -- 67
2020-06-14 18:00:00 19.4 13 Norte 20 Norte 0 -- -- 62
2020-06-14 17:00:00 19.6 13 Norte 19 Norte 0 -- -- 61
2020-06-14 16:00:00 20.2 12 Nordeste 22 Nordeste 0 -- -- 61
2020-06-14 15:00:00 20 17 Nordeste 26 Nordeste 0 -- -- 61
2020-06-14 14:00:00 20.2 14 Nordeste 24 Nordeste 0 -- -- 60
2020-06-14 13:00:00 19.9 12 Nordeste 21 Nordeste 0 -- -- 60
2020-06-14 12:00:00 20.9 6 Nordeste 11 Norte 0 -- -- 55
2020-06-14 11:00:00 20.3 3 Oeste 8 Sur 0 -- -- 56
2020-06-14 10:00:00 18.6 3 Oeste 9 Sudoeste 0 -- -- 73
2020-06-14 09:00:00 16.2 0 Calma 10 Sudeste 0 -- -- 83
2020-06-14 08:00:00 13.4 5 Sur 14 Sur 0 -- -- 94
2020-06-14 07:00:00 12.8 9 Sur 14 Sudeste 0 -- -- 95
2020-06-14 06:00:00 12.7 9 Sur 17 Sudeste 0 -- -- 94
2020-06-14 05:00:00 13.1 11 Sudeste 17 Sudeste 0 -- -- 95
2020-06-14 04:00:00 13.4 8 Sur 17 Sudeste 0 -- -- 93
2020-06-14 03:00:00 14.1 8 Sudeste 14 Sudeste 0 -- -- 91
2020-06-14 02:00:00 14.4 10 Sudeste 12 Sudeste 0 -- -- 88
2020-06-14 01:00:00 14.5 5 Sur 10 Sudeste 0 -- -- 88
2020-06-14 00:00:00 14.7 3 Oeste 5 Oeste 0 -- -- 85
2020-06-13 23:00:00 14.8 3 Noroeste 10 Noroeste 0 -- -- 84
2020-06-13 22:00:00 15.1 7 Noroeste 14 Norte 0 -- -- 82
2020-06-13 21:00:00 15.5 9 Norte 12 Norte 0 -- -- 85
2020-06-13 20:00:00 16.7 7 Sudeste 9 Sudeste 0 -- -- 82
2020-06-13 19:00:00 17.4 3 Sudoeste 10 Sudoeste 0 -- -- 77
2020-06-13 18:00:00 17 5 Sudoeste 15 Noroeste 0.4 -- -- 81
2020-06-13 17:00:00 17.2 10 Noroeste 15 Norte 0 -- -- 74
2020-06-13 16:00:00 17.6 10 Norte 21 Noroeste 0 -- -- 77
2020-06-13 15:00:00 18.8 17 Norte 25 Norte 0 -- -- 68
2020-06-13 14:00:00 19.6 14 Nordeste 19 Nordeste 0 -- -- 68
2020-06-13 13:00:00 20 4 Norte 18 Norte 0 -- -- 62
2020-06-13 12:00:00 18.6 4 Este 9 Sur 0 -- -- 72
2020-06-13 11:00:00 15.3 7 Sur 13 Sudeste 0 -- -- 82
2020-06-13 10:00:00 14 3 Sudoeste 13 Sur 0 -- -- 85
2020-06-13 09:00:00 13.7 7 Sur 16 Sudeste 0 -- -- 86
2020-06-13 08:00:00 13 8 Sur 12 Sur 0 -- -- 87
2020-06-13 07:00:00 12.5 10 Sur 13 Sur 0 -- -- 88
2020-06-13 06:00:00 12.6 8 Sur 14 Sudeste 0 -- -- 88
2020-06-13 05:00:00 12.2 8 Sudoeste 17 Sudeste 0 -- -- 91
2020-06-13 04:00:00 11.9 12 Sur 17 Sudeste 0 -- -- 91
2020-06-13 03:00:00 11.8 8 Sur 13 Sur 0 -- -- 92
2020-06-13 02:00:00 12.2 6 Sur 21 Sudoeste 0 -- -- 91
2020-06-13 01:00:00 12 5 Sudoeste 21 Sudeste 0 -- -- 91
2020-06-13 00:00:00 13 8 Sur 9 Sur 0 -- -- 87
2020-06-12 23:00:00 13.6 0 Calma 10 Oeste 0 -- -- 83
2020-06-12 22:00:00 14.2 7 Oeste 12 Oeste 0 -- -- 78
2020-06-12 21:00:00 15.4 4 Norte 11 Oeste 0 -- -- 73
2020-06-12 20:00:00 16.6 2 Este 15 Sudeste 0 -- -- 67
2020-06-12 19:00:00 17.6 5 Norte 17 Noroeste 0 -- -- 61
2020-06-12 18:00:00 17 9 Oeste 19 Noroeste 0 -- -- 69
2020-06-12 17:00:00 13.3 7 Sudoeste 51 Oeste 1 -- -- 87
2020-06-12 16:00:00 13.5 31 Oeste 63 Noroeste 0.2 -- -- 80
2020-06-12 15:00:00 17.9 23 Noroeste 45 Noroeste 0 -- -- 68
2020-06-12 14:00:00 16.9 26 Noroeste 41 Noroeste 0 -- -- 69
2020-06-12 13:00:00 16.5 17 Oeste 42 Oeste 0 -- -- 67
2020-06-12 12:00:00 14.9 28 Oeste 49 Oeste 0 -- -- 69
2020-06-12 11:00:00 14.8 24 Oeste 46 Noroeste 0 -- -- 70
2020-06-12 10:00:00 15.2 7 Oeste 29 Oeste 0 -- -- 67
2020-06-12 09:00:00 15.8 9 Sudoeste 18 Sudoeste 0 -- -- 69
2020-06-12 08:00:00 12.7 9 Sudoeste 13 Sudoeste 0 -- -- 79
2020-06-12 07:00:00 12.5 6 Sudoeste 33 Oeste 0.2 -- -- 78
2020-06-12 06:00:00 13.3 7 Oeste 27 Noroeste 0 -- -- 73
2020-06-12 05:00:00 13.8 18 Sudoeste 31 Sudoeste 0 -- -- 64
2020-06-12 04:00:00 13.8 17 Sudoeste 30 Sur 0 -- -- 65
2020-06-12 03:00:00 13.9 12 Sudoeste 35 Sudoeste 0 -- -- 64
2020-06-12 02:00:00 12.7 12 Sur 31 Sur 0 -- -- 71
2020-06-12 01:00:00 11.3 11 Sudeste 26 Sudeste 0 -- -- 84
2020-06-12 00:00:00 10.8 17 Sudeste 28 Sudeste 0 -- -- 87
2020-06-11 23:00:00 10.2 17 Sudeste 31 Sudeste 0 -- -- 93
2020-06-11 22:00:00 10.7 24 Sudeste 31 Sudeste 0 -- -- 93
2020-06-11 21:00:00 11.3 15 Sudeste 22 Sudeste 0.8 -- -- 93
2020-06-11 20:00:00 11.4 9 Sudoeste 43 Oeste 2.2 -- -- 90
2020-06-11 19:00:00 12.7 21 Noroeste 41 Noroeste 0.6 -- -- 84
2020-06-11 18:00:00 13.3 15 Oeste 44 Noroeste 0 -- -- 84
2020-06-11 17:00:00 13.3 14 Oeste 39 Noroeste 0 -- -- 86
2020-06-11 16:00:00 13.7 14 Oeste 39 Oeste 0 -- -- 82
2020-06-11 15:00:00 13.3 19 Noroeste 34 Noroeste 0.2 -- -- 89
2020-06-11 14:00:00 12 27 Noroeste 50 Noroeste 0.8 -- -- 93
2020-06-11 13:00:00 12.9 23 Oeste 47 Noroeste 0.6 -- -- 94
2020-06-11 12:00:00 13.4 30 Noroeste 49 Noroeste 1.2 -- -- 93
2020-06-11 11:00:00 18.5 12 Oeste 25 Sudoeste 0 -- -- 76
2020-06-11 10:00:00 15.6 10 Sudoeste 18 Sudoeste 0 -- -- 90
2020-06-11 09:00:00 14.2 6 Sur 17 Sudeste 0 -- -- 93
2020-06-11 08:00:00 13.4 10 Sudeste 15 Sudeste 0 -- -- 94
2020-06-11 07:00:00 13.3 4 Sur 11 Sudeste 0 -- -- 95
2020-06-11 06:00:00 13.3 5 Sur 11 Sur 0 -- -- 95
2020-06-11 05:00:00 13.4 6 Sudoeste 9 Sudoeste 0 -- -- 95
2020-06-11 04:00:00 13.5 3 Sur 8 Sudoeste 0 -- -- 95
2020-06-11 03:00:00 13.8 4 Sur 8 Sur 0 -- -- 94
2020-06-11 02:00:00 14.1 6 Sudoeste 8 Sudoeste 0 -- -- 92
2020-06-11 01:00:00 14.3 6 Sudoeste 7 Sudoeste 0 -- -- 91
2020-06-11 00:00:00 14.4 6 Sudoeste 8 Sudoeste 0 -- -- 90
2020-06-10 23:00:00 14.6 4 Oeste 8 Oeste 0 -- -- 89
2020-06-10 22:00:00 14.7 4 Oeste 7 Oeste 0 -- -- 88
2020-06-10 21:00:00 15 4 Noroeste 9 Noroeste 0 -- -- 87
2020-06-10 20:00:00 15.5 6 Noroeste 8 Noroeste 0 -- -- 84
2020-06-10 19:00:00 15.7 2 Norte 11 Norte 0 -- -- 83
2020-06-10 18:00:00 15.9 10 Norte 14 Norte 0 -- -- 81
2020-06-10 17:00:00 16.5 6 Noroeste 16 Norte 0 -- -- 75
2020-06-10 16:00:00 16.8 13 Norte 19 Norte 0 -- -- 75
2020-06-10 15:00:00 18 8 Norte 19 Norte 0 -- -- 77
2020-06-10 14:00:00 17.4 11 Norte 17 Norte 0 -- -- 78
2020-06-10 13:00:00 17.3 8 Norte 14 Norte 0 -- -- 78
2020-06-10 12:00:00 17 9 Norte 16 Norte 0 -- -- 80
2020-06-10 11:00:00 18.1 5 Nordeste 9 Nordeste 0 -- -- 77
2020-06-10 10:00:00 15.9 3 Sudoeste 12 Sur 0 -- -- 76
2020-06-10 09:00:00 12.7 7 Sur 15 Sudeste 0 -- -- 84
2020-06-10 08:00:00 11.4 9 Sur 13 Sudoeste 0 -- -- 89
2020-06-10 07:00:00 10.6 9 Sudoeste 13 Sudoeste 0 -- -- 92
2020-06-10 06:00:00 10.3 9 Sur 19 Sudeste 0 -- -- 92
2020-06-10 05:00:00 10.6 8 Sur 14 Sudoeste 0 -- -- 93
2020-06-10 04:00:00 11 10 Sur 16 Sudeste 0 -- -- 92
2020-06-10 03:00:00 10.9 8 Sur 13 Sur 0 -- -- 92
2020-06-10 02:00:00 11.4 9 Sur 18 Sudoeste 0 -- -- 92
2020-06-10 01:00:00 11.9 9 Sudoeste 14 Sudoeste 0 -- -- 90
2020-06-10 00:00:00 12.5 12 Sudoeste 15 Sudoeste 0 -- -- 89